sensor_id;sensor_type;location;lat;lon;timestamp;P1;durP1;ratioP1;P2;durP2;ratioP2
77298;SDS011;66361;52.034;20.656;2023-04-06T00:00:10;8.88;;;4.95;;
77298;SDS011;66361;52.034;20.656;2023-04-06T00:04:35;11.02;;;5.95;;
77298;SDS011;66361;52.034;20.656;2023-04-06T00:08:40;11.00;;;5.38;;
77298;SDS011;66361;52.034;20.656;2023-04-06T00:12:44;8.82;;;5.55;;
77298;SDS011;66361;52.034;20.656;2023-04-06T00:16:47;7.35;;;5.20;;
77298;SDS011;66361;52.034;20.656;2023-04-06T00:20:50;8.75;;;6.00;;
77298;SDS011;66361;52.034;20.656;2023-04-06T00:24:55;7.97;;;5.25;;
77298;SDS011;66361;52.034;20.656;2023-04-06T00:28:58;8.98;;;5.63;;
77298;SDS011;66361;52.034;20.656;2023-04-06T00:33:02;9.70;;;5.18;;
77298;SDS011;66361;52.034;20.656;2023-04-06T00:37:06;10.00;;;5.53;;
77298;SDS011;66361;52.034;20.656;2023-04-06T00:41:11;11.13;;;6.28;;
77298;SDS011;66361;52.034;20.656;2023-04-06T00:45:14;9.75;;;6.28;;
77298;SDS011;66361;52.034;20.656;2023-04-06T00:49:17;9.52;;;6.38;;
77298;SDS011;66361;52.034;20.656;2023-04-06T00:53:21;10.75;;;5.18;;
77298;SDS011;66361;52.034;20.656;2023-04-06T00:57:26;8.90;;;6.28;;
77298;SDS011;66361;52.034;20.656;2023-04-06T01:01:29;9.63;;;5.60;;
77298;SDS011;66361;52.034;20.656;2023-04-06T01:05:33;10.35;;;6.03;;
77298;SDS011;66361;52.034;20.656;2023-04-06T01:09:44;8.60;;;6.05;;
77298;SDS011;66361;52.034;20.656;2023-04-06T01:13:51;10.35;;;6.93;;
77298;SDS011;66361;52.034;20.656;2023-04-06T01:17:57;12.65;;;6.72;;
77298;SDS011;66361;52.034;20.656;2023-04-06T01:22:01;9.35;;;5.80;;
77298;SDS011;66361;52.034;20.656;2023-04-06T01:26:05;13.70;;;7.00;;
77298;SDS011;66361;52.034;20.656;2023-04-06T01:30:11;14.02;;;6.57;;
77298;SDS011;66361;52.034;20.656;2023-04-06T01:34:15;13.55;;;7.35;;
77298;SDS011;66361;52.034;20.656;2023-04-06T01:38:18;11.38;;;6.55;;
77298;SDS011;66361;52.034;20.656;2023-04-06T01:42:22;11.70;;;6.30;;
77298;SDS011;66361;52.034;20.656;2023-04-06T01:46:25;8.55;;;6.00;;
77298;SDS011;66361;52.034;20.656;2023-04-06T01:50:28;10.52;;;6.05;;
77298;SDS011;66361;52.034;20.656;2023-04-06T01:54:32;11.75;;;6.60;;
77298;SDS011;66361;52.034;20.656;2023-04-06T01:58:36;13.57;;;8.02;;
77298;SDS011;66361;52.034;20.656;2023-04-06T02:02:39;13.00;;;6.95;;
77298;SDS011;66361;52.034;20.656;2023-04-06T02:06:42;11.98;;;7.00;;
77298;SDS011;66361;52.034;20.656;2023-04-06T02:10:45;14.57;;;7.63;;
77298;SDS011;66361;52.034;20.656;2023-04-06T02:14:50;13.40;;;7.22;;
77298;SDS011;66361;52.034;20.656;2023-04-06T02:18:52;14.48;;;8.35;;
77298;SDS011;66361;52.034;20.656;2023-04-06T02:22:56;14.68;;;7.97;;
77298;SDS011;66361;52.034;20.656;2023-04-06T02:27:03;14.77;;;7.65;;
77298;SDS011;66361;52.034;20.656;2023-04-06T02:31:09;15.27;;;7.80;;
77298;SDS011;66361;52.034;20.656;2023-04-06T02:35:12;10.35;;;7.28;;
77298;SDS011;66361;52.034;20.656;2023-04-06T02:39:17;13.30;;;7.60;;
77298;SDS011;66361;52.034;20.656;2023-04-06T02:43:20;15.25;;;7.40;;
77298;SDS011;66361;52.034;20.656;2023-04-06T02:47:30;13.30;;;7.03;;
77298;SDS011;66361;52.034;20.656;2023-04-06T02:51:33;14.43;;;7.40;;
77298;SDS011;66361;52.034;20.656;2023-04-06T02:55:36;11.75;;;7.68;;
77298;SDS011;66361;52.034;20.656;2023-04-06T02:59:39;12.40;;;6.32;;
77298;SDS011;66361;52.034;20.656;2023-04-06T03:03:44;13.95;;;6.38;;
77298;SDS011;66361;52.034;20.656;2023-04-06T03:07:51;12.63;;;7.07;;
77298;SDS011;66361;52.034;20.656;2023-04-06T03:11:54;13.40;;;6.22;;
77298;SDS011;66361;52.034;20.656;2023-04-06T03:15:57;10.65;;;6.75;;
77298;SDS011;66361;52.034;20.656;2023-04-06T03:20:02;12.98;;;6.55;;
77298;SDS011;66361;52.034;20.656;2023-04-06T03:24:07;11.15;;;7.60;;
77298;SDS011;66361;52.034;20.656;2023-04-06T03:28:10;13.43;;;7.00;;
77298;SDS011;66361;52.034;20.656;2023-04-06T03:32:18;13.82;;;6.95;;
77298;SDS011;66361;52.034;20.656;2023-04-06T03:36:25;9.68;;;6.10;;
77298;SDS011;66361;52.034;20.656;2023-04-06T03:40:28;13.00;;;6.50;;
77298;SDS011;66361;52.034;20.656;2023-04-06T03:44:30;13.43;;;7.45;;
77298;SDS011;66361;52.034;20.656;2023-04-06T03:48:33;11.02;;;6.70;;
77298;SDS011;66361;52.034;20.656;2023-04-06T03:52:39;12.98;;;6.88;;
77298;SDS011;66361;52.034;20.656;2023-04-06T03:56:42;11.77;;;6.45;;
77298;SDS011;66361;52.034;20.656;2023-04-06T04:00:45;11.43;;;5.85;;
77298;SDS011;66361;52.034;20.656;2023-04-06T04:04:48;9.77;;;5.78;;
77298;SDS011;66361;52.034;20.656;2023-04-06T04:08:53;12.68;;;6.43;;
77298;SDS011;66361;52.034;20.656;2023-04-06T04:12:58;10.48;;;5.97;;
77298;SDS011;66361;52.034;20.656;2023-04-06T04:17:01;11.57;;;5.75;;
77298;SDS011;66361;52.034;20.656;2023-04-06T04:21:04;9.93;;;5.70;;
77298;SDS011;66361;52.034;20.656;2023-04-06T04:25:09;11.88;;;6.45;;
77298;SDS011;66361;52.034;20.656;2023-04-06T04:29:12;17.23;;;7.85;;
77298;SDS011;66361;52.034;20.656;2023-04-06T04:33:16;12.57;;;6.82;;
77298;SDS011;66361;52.034;20.656;2023-04-06T04:37:19;11.48;;;7.38;;
77298;SDS011;66361;52.034;20.656;2023-04-06T04:41:24;16.58;;;9.35;;
77298;SDS011;66361;52.034;20.656;2023-04-06T04:45:27;15.50;;;7.70;;
77298;SDS011;66361;52.034;20.656;2023-04-06T04:49:30;14.27;;;8.00;;
77298;SDS011;66361;52.034;20.656;2023-04-06T04:53:33;15.35;;;7.75;;
77298;SDS011;66361;52.034;20.656;2023-04-06T04:57:41;15.20;;;7.30;;
77298;SDS011;66361;52.034;20.656;2023-04-06T05:01:44;11.15;;;7.18;;
77298;SDS011;66361;52.034;20.656;2023-04-06T05:05:55;14.20;;;6.85;;
77298;SDS011;66361;52.034;20.656;2023-04-06T05:09:58;11.63;;;7.05;;
77298;SDS011;66361;52.034;20.656;2023-04-06T05:14:03;15.82;;;9.02;;
77298;SDS011;66361;52.034;20.656;2023-04-06T05:18:12;12.23;;;8.23;;
77298;SDS011;66361;52.034;20.656;2023-04-06T05:22:16;13.00;;;7.90;;
77298;SDS011;66361;52.034;20.656;2023-04-06T05:26:19;11.32;;;6.22;;
77298;SDS011;66361;52.034;20.656;2023-04-06T05:30:24;9.05;;;7.30;;
77298;SDS011;66361;52.034;20.656;2023-04-06T05:34:27;12.38;;;5.95;;
77298;SDS011;66361;52.034;20.656;2023-04-06T05:38:30;10.02;;;6.75;;
77298;SDS011;66361;52.034;20.656;2023-04-06T05:42:35;12.95;;;5.90;;
77298;SDS011;66361;52.034;20.656;2023-04-06T05:46:48;10.63;;;5.28;;
77298;SDS011;66361;52.034;20.656;2023-04-06T05:50:50;11.00;;;6.50;;
77298;SDS011;66361;52.034;20.656;2023-04-06T05:54:54;7.28;;;5.40;;
77298;SDS011;66361;52.034;20.656;2023-04-06T05:58:57;13.25;;;6.78;;
77298;SDS011;66361;52.034;20.656;2023-04-06T06:03:01;7.53;;;5.00;;
77298;SDS011;66361;52.034;20.656;2023-04-06T06:07:07;9.95;;;5.63;;
77298;SDS011;66361;52.034;20.656;2023-04-06T06:11:11;8.65;;;4.88;;
77298;SDS011;66361;52.034;20.656;2023-04-06T06:15:14;8.30;;;5.65;;
77298;SDS011;66361;52.034;20.656;2023-04-06T06:19:19;7.38;;;4.93;;
77298;SDS011;66361;52.034;20.656;2023-04-06T06:23:25;9.15;;;4.80;;
77298;SDS011;66361;52.034;20.656;2023-04-06T06:27:28;8.23;;;4.38;;
77298;SDS011;66361;52.034;20.656;2023-04-06T06:31:31;6.40;;;3.88;;
77298;SDS011;66361;52.034;20.656;2023-04-06T06:35:37;8.43;;;4.20;;
77298;SDS011;66361;52.034;20.656;2023-04-06T06:39:40;8.38;;;4.40;;
77298;SDS011;66361;52.034;20.656;2023-04-06T06:43:43;8.15;;;4.63;;
77298;SDS011;66361;52.034;20.656;2023-04-06T06:47:46;7.70;;;4.30;;
77298;SDS011;66361;52.034;20.656;2023-04-06T06:51:52;8.50;;;5.13;;
77298;SDS011;66361;52.034;20.656;2023-04-06T06:55:58;6.85;;;4.93;;
77298;SDS011;66361;52.034;20.656;2023-04-06T07:04:06;6.82;;;3.85;;
77298;SDS011;66361;52.034;20.656;2023-04-06T07:08:11;7.38;;;4.05;;
77298;SDS011;66361;52.034;20.656;2023-04-06T07:12:14;6.50;;;3.80;;
77298;SDS011;66361;52.034;20.656;2023-04-06T07:16:18;6.57;;;3.33;;
77298;SDS011;66361;52.034;20.656;2023-04-06T07:20:21;6.57;;;4.10;;
77298;SDS011;66361;52.034;20.656;2023-04-06T07:28:29;5.15;;;3.85;;
77298;SDS011;66361;52.034;20.656;2023-04-06T07:32:32;4.38;;;3.25;;
77298;SDS011;66361;52.034;20.656;2023-04-06T07:36:37;5.03;;;3.42;;
77298;SDS011;66361;52.034;20.656;2023-04-06T07:40:44;5.97;;;3.88;;
77298;SDS011;66361;52.034;20.656;2023-04-06T07:44:47;4.47;;;2.95;;
77298;SDS011;66361;52.034;20.656;2023-04-06T07:48:51;4.68;;;3.65;;
77298;SDS011;66361;52.034;20.656;2023-04-06T07:52:55;5.00;;;3.03;;
77298;SDS011;66361;52.034;20.656;2023-04-06T07:57:03;6.88;;;3.38;;
77298;SDS011;66361;52.034;20.656;2023-04-06T08:01:06;4.93;;;3.10;;
77298;SDS011;66361;52.034;20.656;2023-04-06T08:05:09;7.50;;;3.50;;
77298;SDS011;66361;52.034;20.656;2023-04-06T08:09:12;5.70;;;3.45;;
77298;SDS011;66361;52.034;20.656;2023-04-06T08:13:16;5.93;;;3.47;;
77298;SDS011;66361;52.034;20.656;2023-04-06T08:17:20;5.50;;;3.53;;
77298;SDS011;66361;52.034;20.656;2023-04-06T08:25:26;4.78;;;3.45;;
77298;SDS011;66361;52.034;20.656;2023-04-06T08:33:33;4.63;;;3.28;;
77298;SDS011;66361;52.034;20.656;2023-04-06T08:37:37;5.07;;;3.70;;
77298;SDS011;66361;52.034;20.656;2023-04-06T08:41:41;4.82;;;3.55;;
77298;SDS011;66361;52.034;20.656;2023-04-06T08:45:46;5.25;;;3.33;;
77298;SDS011;66361;52.034;20.656;2023-04-06T08:49:50;4.47;;;3.20;;
77298;SDS011;66361;52.034;20.656;2023-04-06T08:53:54;4.90;;;3.60;;
77298;SDS011;66361;52.034;20.656;2023-04-06T08:57:58;4.05;;;2.22;;
77298;SDS011;66361;52.034;20.656;2023-04-06T09:02:04;7.25;;;4.28;;
77298;SDS011;66361;52.034;20.656;2023-04-06T09:06:09;7.53;;;3.78;;
77298;SDS011;66361;52.034;20.656;2023-04-06T09:10:13;4.97;;;3.50;;
77298;SDS011;66361;52.034;20.656;2023-04-06T09:14:32;5.47;;;3.70;;
77298;SDS011;66361;52.034;20.656;2023-04-06T09:18:40;3.97;;;3.20;;
77298;SDS011;66361;52.034;20.656;2023-04-06T09:22:47;4.47;;;2.47;;
77298;SDS011;66361;52.034;20.656;2023-04-06T09:26:50;4.53;;;3.47;;
77298;SDS011;66361;52.034;20.656;2023-04-06T09:30:55;9.32;;;4.22;;
77298;SDS011;66361;52.034;20.656;2023-04-06T09:35:07;5.28;;;3.22;;
77298;SDS011;66361;52.034;20.656;2023-04-06T09:39:13;5.43;;;3.83;;
77298;SDS011;66361;52.034;20.656;2023-04-06T09:43:23;6.65;;;4.25;;
77298;SDS011;66361;52.034;20.656;2023-04-06T09:47:30;4.78;;;3.33;;
77298;SDS011;66361;52.034;20.656;2023-04-06T09:51:36;4.60;;;2.95;;
77298;SDS011;66361;52.034;20.656;2023-04-06T09:55:42;5.70;;;4.20;;
77298;SDS011;66361;52.034;20.656;2023-04-06T09:59:48;6.97;;;4.10;;
77298;SDS011;66361;52.034;20.656;2023-04-06T10:04:00;5.22;;;3.80;;
77298;SDS011;66361;52.034;20.656;2023-04-06T10:08:15;5.07;;;3.80;;
77298;SDS011;66361;52.034;20.656;2023-04-06T10:12:21;4.57;;;3.50;;
77298;SDS011;66361;52.034;20.656;2023-04-06T10:16:26;5.75;;;4.25;;
77298;SDS011;66361;52.034;20.656;2023-04-06T10:20:32;5.72;;;4.45;;
77298;SDS011;66361;52.034;20.656;2023-04-06T10:24:42;6.10;;;4.88;;
77298;SDS011;66361;52.034;20.656;2023-04-06T10:28:45;6.10;;;4.25;;
77298;SDS011;66361;52.034;20.656;2023-04-06T10:32:50;5.75;;;3.65;;
77298;SDS011;66361;52.034;20.656;2023-04-06T10:36:54;8.45;;;5.70;;
77298;SDS011;66361;52.034;20.656;2023-04-06T10:40:59;4.95;;;4.38;;
77298;SDS011;66361;52.034;20.656;2023-04-06T10:45:07;10.70;;;5.32;;
77298;SDS011;66361;52.034;20.656;2023-04-06T10:49:21;7.38;;;5.15;;
77298;SDS011;66361;52.034;20.656;2023-04-06T10:53:27;7.57;;;5.20;;
77298;SDS011;66361;52.034;20.656;2023-04-06T10:57:32;7.28;;;5.72;;
77298;SDS011;66361;52.034;20.656;2023-04-06T11:01:35;8.18;;;5.20;;
77298;SDS011;66361;52.034;20.656;2023-04-06T11:05:38;10.52;;;5.65;;
77298;SDS011;66361;52.034;20.656;2023-04-06T11:09:49;8.10;;;5.35;;
77298;SDS011;66361;52.034;20.656;2023-04-06T11:14:14;9.35;;;6.80;;
77298;SDS011;66361;52.034;20.656;2023-04-06T11:18:17;7.00;;;5.60;;
77298;SDS011;66361;52.034;20.656;2023-04-06T11:22:21;7.55;;;5.13;;
77298;SDS011;66361;52.034;20.656;2023-04-06T11:26:24;12.35;;;6.90;;
77298;SDS011;66361;52.034;20.656;2023-04-06T11:34:34;12.35;;;7.03;;
77298;SDS011;66361;52.034;20.656;2023-04-06T11:38:39;11.25;;;7.07;;
77298;SDS011;66361;52.034;20.656;2023-04-06T11:42:43;10.63;;;6.75;;
77298;SDS011;66361;52.034;20.656;2023-04-06T11:46:56;11.60;;;6.82;;
77298;SDS011;66361;52.034;20.656;2023-04-06T11:51:00;8.30;;;6.00;;
77298;SDS011;66361;52.034;20.656;2023-04-06T11:55:12;6.60;;;4.57;;
77298;SDS011;66361;52.034;20.656;2023-04-06T11:59:16;10.95;;;6.90;;
77298;SDS011;66361;52.034;20.656;2023-04-06T12:03:21;12.63;;;8.75;;
77298;SDS011;66361;52.034;20.656;2023-04-06T12:07:24;8.43;;;5.50;;
77298;SDS011;66361;52.034;20.656;2023-04-06T12:11:31;11.45;;;8.13;;
77298;SDS011;66361;52.034;20.656;2023-04-06T12:15:34;10.45;;;7.68;;
77298;SDS011;66361;52.034;20.656;2023-04-06T12:19:38;12.52;;;8.38;;
77298;SDS011;66361;52.034;20.656;2023-04-06T12:23:42;5.30;;;4.53;;
77298;SDS011;66361;52.034;20.656;2023-04-06T12:27:45;7.72;;;5.25;;
77298;SDS011;66361;52.034;20.656;2023-04-06T12:31:50;9.73;;;7.60;;
77298;SDS011;66361;52.034;20.656;2023-04-06T12:35:56;13.13;;;7.90;;
77298;SDS011;66361;52.034;20.656;2023-04-06T12:39:59;8.27;;;6.07;;
77298;SDS011;66361;52.034;20.656;2023-04-06T12:44:09;9.88;;;7.00;;
77298;SDS011;66361;52.034;20.656;2023-04-06T12:48:12;7.93;;;5.85;;
77298;SDS011;66361;52.034;20.656;2023-04-06T12:52:18;8.15;;;6.15;;
77298;SDS011;66361;52.034;20.656;2023-04-06T12:56:21;8.18;;;6.18;;
77298;SDS011;66361;52.034;20.656;2023-04-06T13:00:25;11.90;;;6.60;;
77298;SDS011;66361;52.034;20.656;2023-04-06T13:04:28;7.50;;;5.22;;
77298;SDS011;66361;52.034;20.656;2023-04-06T13:08:33;12.07;;;7.53;;
77298;SDS011;66361;52.034;20.656;2023-04-06T13:12:38;7.07;;;4.55;;
77298;SDS011;66361;52.034;20.656;2023-04-06T13:16:41;11.02;;;5.60;;
77298;SDS011;66361;52.034;20.656;2023-04-06T13:20:46;8.60;;;4.57;;
77298;SDS011;66361;52.034;20.656;2023-04-06T13:28:59;10.70;;;6.72;;
77298;SDS011;66361;52.034;20.656;2023-04-06T13:33:03;7.97;;;5.55;;
77298;SDS011;66361;52.034;20.656;2023-04-06T13:37:08;9.27;;;6.50;;
77298;SDS011;66361;52.034;20.656;2023-04-06T13:41:18;8.85;;;4.50;;
77298;SDS011;66361;52.034;20.656;2023-04-06T13:45:23;8.82;;;6.30;;
77298;SDS011;66361;52.034;20.656;2023-04-06T13:49:26;11.57;;;8.40;;
77298;SDS011;66361;52.034;20.656;2023-04-06T13:57:33;9.10;;;6.57;;
77298;SDS011;66361;52.034;20.656;2023-04-06T14:01:37;10.82;;;7.03;;
77298;SDS011;66361;52.034;20.656;2023-04-06T14:05:41;13.77;;;8.13;;
77298;SDS011;66361;52.034;20.656;2023-04-06T14:09:44;14.18;;;8.75;;
77298;SDS011;66361;52.034;20.656;2023-04-06T14:13:48;9.80;;;7.25;;
77298;SDS011;66361;52.034;20.656;2023-04-06T14:17:52;7.57;;;5.03;;
77298;SDS011;66361;52.034;20.656;2023-04-06T14:21:55;7.65;;;5.65;;
77298;SDS011;66361;52.034;20.656;2023-04-06T14:26:02;13.77;;;8.63;;
77298;SDS011;66361;52.034;20.656;2023-04-06T14:30:08;13.82;;;7.60;;
77298;SDS011;66361;52.034;20.656;2023-04-06T14:34:14;10.98;;;6.30;;
77298;SDS011;66361;52.034;20.656;2023-04-06T14:38:18;16.13;;;9.98;;
77298;SDS011;66361;52.034;20.656;2023-04-06T14:42:21;11.13;;;7.05;;
77298;SDS011;66361;52.034;20.656;2023-04-06T14:46:25;15.88;;;9.50;;
77298;SDS011;66361;52.034;20.656;2023-04-06T14:50:29;13.10;;;8.25;;
77298;SDS011;66361;52.034;20.656;2023-04-06T14:54:32;12.05;;;7.72;;
77298;SDS011;66361;52.034;20.656;2023-04-06T14:58:38;17.52;;;10.10;;
77298;SDS011;66361;52.034;20.656;2023-04-06T15:02:42;14.98;;;8.98;;
77298;SDS011;66361;52.034;20.656;2023-04-06T15:11:12;14.32;;;9.75;;
77298;SDS011;66361;52.034;20.656;2023-04-06T15:15:16;9.93;;;7.30;;
77298;SDS011;66361;52.034;20.656;2023-04-06T15:19:22;13.70;;;8.80;;
77298;SDS011;66361;52.034;20.656;2023-04-06T15:23:25;15.90;;;9.15;;
77298;SDS011;66361;52.034;20.656;2023-04-06T15:27:33;15.45;;;9.43;;
77298;SDS011;66361;52.034;20.656;2023-04-06T15:31:37;14.13;;;8.90;;
77298;SDS011;66361;52.034;20.656;2023-04-06T15:35:44;17.65;;;10.77;;
77298;SDS011;66361;52.034;20.656;2023-04-06T15:39:48;16.48;;;10.50;;
77298;SDS011;66361;52.034;20.656;2023-04-06T15:43:51;13.85;;;7.70;;
77298;SDS011;66361;52.034;20.656;2023-04-06T15:47:55;18.80;;;9.68;;
77298;SDS011;66361;52.034;20.656;2023-04-06T15:51:59;12.63;;;9.63;;
77298;SDS011;66361;52.034;20.656;2023-04-06T15:56:03;12.82;;;8.88;;
77298;SDS011;66361;52.034;20.656;2023-04-06T16:00:08;16.95;;;9.98;;
77298;SDS011;66361;52.034;20.656;2023-04-06T16:04:12;13.63;;;7.88;;
77298;SDS011;66361;52.034;20.656;2023-04-06T16:08:18;13.65;;;8.90;;
77298;SDS011;66361;52.034;20.656;2023-04-06T16:12:21;14.25;;;9.07;;
77298;SDS011;66361;52.034;20.656;2023-04-06T16:16:26;11.75;;;7.95;;
77298;SDS011;66361;52.034;20.656;2023-04-06T16:20:29;11.52;;;8.68;;
77298;SDS011;66361;52.034;20.656;2023-04-06T16:28:41;14.32;;;9.55;;
77298;SDS011;66361;52.034;20.656;2023-04-06T16:32:44;15.75;;;10.65;;
77298;SDS011;66361;52.034;20.656;2023-04-06T16:36:50;12.77;;;7.63;;
77298;SDS011;66361;52.034;20.656;2023-04-06T16:40:59;14.93;;;10.73;;
77298;SDS011;66361;52.034;20.656;2023-04-06T16:45:03;12.98;;;7.80;;
77298;SDS011;66361;52.034;20.656;2023-04-06T16:49:06;17.88;;;9.35;;
77298;SDS011;66361;52.034;20.656;2023-04-06T16:53:09;13.63;;;9.23;;
77298;SDS011;66361;52.034;20.656;2023-04-06T16:57:14;16.95;;;9.10;;
77298;SDS011;66361;52.034;20.656;2023-04-06T17:01:18;18.27;;;10.80;;
77298;SDS011;66361;52.034;20.656;2023-04-06T17:05:25;18.83;;;11.68;;
77298;SDS011;66361;52.034;20.656;2023-04-06T17:09:34;16.55;;;10.20;;
77298;SDS011;66361;52.034;20.656;2023-04-06T17:13:39;17.10;;;10.85;;
77298;SDS011;66361;52.034;20.656;2023-04-06T17:17:47;20.83;;;12.45;;
77298;SDS011;66361;52.034;20.656;2023-04-06T17:21:50;18.02;;;11.40;;
77298;SDS011;66361;52.034;20.656;2023-04-06T17:25:54;17.90;;;10.57;;
77298;SDS011;66361;52.034;20.656;2023-04-06T17:29:59;16.40;;;10.15;;
77298;SDS011;66361;52.034;20.656;2023-04-06T17:34:06;9.02;;;7.38;;
77298;SDS011;66361;52.034;20.656;2023-04-06T17:38:11;16.40;;;8.95;;
77298;SDS011;66361;52.034;20.656;2023-04-06T17:42:14;20.10;;;12.95;;
77298;SDS011;66361;52.034;20.656;2023-04-06T17:50:22;14.88;;;11.43;;
77298;SDS011;66361;52.034;20.656;2023-04-06T17:54:25;18.98;;;11.13;;
77298;SDS011;66361;52.034;20.656;2023-04-06T17:58:30;14.65;;;9.77;;
77298;SDS011;66361;52.034;20.656;2023-04-06T18:02:35;13.85;;;9.75;;
77298;SDS011;66361;52.034;20.656;2023-04-06T18:06:39;8.10;;;5.50;;
77298;SDS011;66361;52.034;20.656;2023-04-06T18:10:44;17.30;;;9.65;;
77298;SDS011;66361;52.034;20.656;2023-04-06T18:14:50;16.33;;;9.18;;
77298;SDS011;66361;52.034;20.656;2023-04-06T18:18:55;16.63;;;10.60;;
77298;SDS011;66361;52.034;20.656;2023-04-06T18:22:59;21.40;;;13.07;;
77298;SDS011;66361;52.034;20.656;2023-04-06T18:27:02;17.70;;;9.57;;
77298;SDS011;66361;52.034;20.656;2023-04-06T18:35:10;19.05;;;11.18;;
77298;SDS011;66361;52.034;20.656;2023-04-06T18:39:14;19.30;;;12.98;;
77298;SDS011;66361;52.034;20.656;2023-04-06T18:43:20;23.15;;;13.05;;
77298;SDS011;66361;52.034;20.656;2023-04-06T18:47:24;14.45;;;9.65;;
77298;SDS011;66361;52.034;20.656;2023-04-06T18:51:29;24.98;;;14.45;;
77298;SDS011;66361;52.034;20.656;2023-04-06T18:55:33;21.02;;;12.30;;
77298;SDS011;66361;52.034;20.656;2023-04-06T18:59:39;33.15;;;19.98;;
77298;SDS011;66361;52.034;20.656;2023-04-06T19:03:43;22.95;;;15.82;;
77298;SDS011;66361;52.034;20.656;2023-04-06T19:07:48;29.73;;;18.08;;
77298;SDS011;66361;52.034;20.656;2023-04-06T19:11:53;71.20;;;38.70;;
77298;SDS011;66361;52.034;20.656;2023-04-06T19:16:01;27.02;;;15.77;;
77298;SDS011;66361;52.034;20.656;2023-04-06T19:20:04;30.55;;;17.55;;
77298;SDS011;66361;52.034;20.656;2023-04-06T19:24:12;49.70;;;31.83;;
77298;SDS011;66361;52.034;20.656;2023-04-06T19:28:17;17.25;;;12.00;;
77298;SDS011;66361;52.034;20.656;2023-04-06T19:32:21;33.72;;;20.88;;
77298;SDS011;66361;52.034;20.656;2023-04-06T19:36:26;17.15;;;11.27;;
77298;SDS011;66361;52.034;20.656;2023-04-06T19:40:31;22.40;;;13.98;;
77298;SDS011;66361;52.034;20.656;2023-04-06T19:44:34;23.30;;;15.77;;
77298;SDS011;66361;52.034;20.656;2023-04-06T19:48:37;19.80;;;11.07;;
77298;SDS011;66361;52.034;20.656;2023-04-06T19:52:42;25.05;;;14.77;;
77298;SDS011;66361;52.034;20.656;2023-04-06T19:56:47;19.33;;;12.07;;
77298;SDS011;66361;52.034;20.656;2023-04-06T20:00:50;41.25;;;25.00;;
77298;SDS011;66361;52.034;20.656;2023-04-06T20:04:53;25.13;;;16.08;;
77298;SDS011;66361;52.034;20.656;2023-04-06T20:08:55;19.90;;;13.15;;
77298;SDS011;66361;52.034;20.656;2023-04-06T20:13:00;24.55;;;14.10;;
77298;SDS011;66361;52.034;20.656;2023-04-06T20:17:03;8.05;;;4.97;;
77298;SDS011;66361;52.034;20.656;2023-04-06T20:21:07;35.67;;;23.08;;
77298;SDS011;66361;52.034;20.656;2023-04-06T20:25:10;22.50;;;12.63;;
77298;SDS011;66361;52.034;20.656;2023-04-06T20:29:15;27.77;;;16.85;;
77298;SDS011;66361;52.034;20.656;2023-04-06T20:33:18;32.45;;;18.17;;
77298;SDS011;66361;52.034;20.656;2023-04-06T20:37:22;35.08;;;19.05;;
77298;SDS011;66361;52.034;20.656;2023-04-06T20:41:25;13.43;;;9.07;;
77298;SDS011;66361;52.034;20.656;2023-04-06T20:45:31;29.45;;;17.95;;
77298;SDS011;66361;52.034;20.656;2023-04-06T20:49:39;51.97;;;25.27;;
77298;SDS011;66361;52.034;20.656;2023-04-06T20:53:48;22.48;;;11.88;;
77298;SDS011;66361;52.034;20.656;2023-04-06T20:57:53;26.40;;;14.63;;
77298;SDS011;66361;52.034;20.656;2023-04-06T21:02:01;19.90;;;10.63;;
77298;SDS011;66361;52.034;20.656;2023-04-06T21:06:05;36.80;;;17.77;;
77298;SDS011;66361;52.034;20.656;2023-04-06T21:10:11;16.77;;;10.02;;
77298;SDS011;66361;52.034;20.656;2023-04-06T21:14:15;23.30;;;12.75;;
77298;SDS011;66361;52.034;20.656;2023-04-06T21:18:23;28.27;;;13.85;;
77298;SDS011;66361;52.034;20.656;2023-04-06T21:22:27;17.92;;;11.85;;
77298;SDS011;66361;52.034;20.656;2023-04-06T21:26:32;24.05;;;11.93;;
77298;SDS011;66361;52.034;20.656;2023-04-06T21:30:35;39.83;;;18.05;;
77298;SDS011;66361;52.034;20.656;2023-04-06T21:34:41;13.35;;;8.43;;
77298;SDS011;66361;52.034;20.656;2023-04-06T21:38:46;68.53;;;23.88;;
77298;SDS011;66361;52.034;20.656;2023-04-06T21:42:50;21.50;;;11.65;;
77298;SDS011;66361;52.034;20.656;2023-04-06T21:46:53;85.78;;;29.88;;
77298;SDS011;66361;52.034;20.656;2023-04-06T21:50:58;95.97;;;34.60;;
77298;SDS011;66361;52.034;20.656;2023-04-06T21:55:02;25.33;;;12.68;;
77298;SDS011;66361;52.034;20.656;2023-04-06T21:59:05;24.95;;;14.15;;
77298;SDS011;66361;52.034;20.656;2023-04-06T22:03:08;26.13;;;12.82;;
77298;SDS011;66361;52.034;20.656;2023-04-06T22:07:14;16.00;;;9.02;;
77298;SDS011;66361;52.034;20.656;2023-04-06T22:11:17;23.17;;;12.25;;
77298;SDS011;66361;52.034;20.656;2023-04-06T22:15:20;19.83;;;11.23;;
77298;SDS011;66361;52.034;20.656;2023-04-06T22:19:23;20.13;;;12.65;;
77298;SDS011;66361;52.034;20.656;2023-04-06T22:23:30;34.00;;;17.38;;
77298;SDS011;66361;52.034;20.656;2023-04-06T22:27:33;23.58;;;13.93;;
77298;SDS011;66361;52.034;20.656;2023-04-06T22:31:36;31.20;;;16.67;;
77298;SDS011;66361;52.034;20.656;2023-04-06T22:35:39;25.88;;;14.50;;
77298;SDS011;66361;52.034;20.656;2023-04-06T22:39:44;37.13;;;19.02;;
77298;SDS011;66361;52.034;20.656;2023-04-06T22:43:47;20.30;;;11.40;;
77298;SDS011;66361;52.034;20.656;2023-04-06T22:47:50;25.98;;;15.32;;
77298;SDS011;66361;52.034;20.656;2023-04-06T22:51:53;25.45;;;13.05;;
77298;SDS011;66361;52.034;20.656;2023-04-06T22:55:58;26.60;;;15.27;;
77298;SDS011;66361;52.034;20.656;2023-04-06T23:00:01;23.70;;;13.90;;
77298;SDS011;66361;52.034;20.656;2023-04-06T23:04:06;33.72;;;16.23;;
77298;SDS011;66361;52.034;20.656;2023-04-06T23:08:09;30.67;;;16.40;;
77298;SDS011;66361;52.034;20.656;2023-04-06T23:12:14;31.80;;;15.43;;
77298;SDS011;66361;52.034;20.656;2023-04-06T23:16:16;30.00;;;15.75;;
77298;SDS011;66361;52.034;20.656;2023-04-06T23:20:21;27.23;;;14.80;;
77298;SDS011;66361;52.034;20.656;2023-04-06T23:24:25;29.77;;;15.15;;
77298;SDS011;66361;52.034;20.656;2023-04-06T23:28:30;23.38;;;13.68;;
77298;SDS011;66361;52.034;20.656;2023-04-06T23:32:33;20.55;;;11.70;;
77298;SDS011;66361;52.034;20.656;2023-04-06T23:36:39;9.68;;;5.90;;
77298;SDS011;66361;52.034;20.656;2023-04-06T23:40:42;18.40;;;11.30;;
77298;SDS011;66361;52.034;20.656;2023-04-06T23:44:47;20.73;;;12.32;;
77298;SDS011;66361;52.034;20.656;2023-04-06T23:48:49;17.20;;;12.00;;
77298;SDS011;66361;52.034;20.656;2023-04-06T23:52:52;20.42;;;10.90;;
77298;SDS011;66361;52.034;20.656;2023-04-06T23:56:55;18.80;;;10.43;;
